sensor_id;sensor_type;location;lat;lon;timestamp;P1;durP1;ratioP1;P2;durP2;ratioP2
34481;SDS011;20720;48.886;9.388;2024-01-15T00:02:05;33.58;;;11.95;;
34481;SDS011;20720;48.886;9.388;2024-01-15T00:04:31;37.38;;;11.55;;
34481;SDS011;20720;48.886;9.388;2024-01-15T00:07:00;37.85;;;11.98;;
34481;SDS011;20720;48.886;9.388;2024-01-15T00:09:26;32.75;;;11.07;;
34481;SDS011;20720;48.886;9.388;2024-01-15T00:11:52;40.40;;;13.38;;
34481;SDS011;20720;48.886;9.388;2024-01-15T00:14:17;39.33;;;13.60;;
34481;SDS011;20720;48.886;9.388;2024-01-15T00:16:45;35.67;;;11.77;;
34481;SDS011;20720;48.886;9.388;2024-01-15T00:19:10;37.70;;;12.85;;
34481;SDS011;20720;48.886;9.388;2024-01-15T00:21:35;39.17;;;12.95;;
34481;SDS011;20720;48.886;9.388;2024-01-15T00:24:00;43.83;;;13.40;;
34481;SDS011;20720;48.886;9.388;2024-01-15T00:26:26;34.75;;;11.73;;
34481;SDS011;20720;48.886;9.388;2024-01-15T00:28:51;35.63;;;13.10;;
34481;SDS011;20720;48.886;9.388;2024-01-15T00:31:16;40.10;;;13.32;;
34481;SDS011;20720;48.886;9.388;2024-01-15T00:33:42;39.90;;;13.30;;
34481;SDS011;20720;48.886;9.388;2024-01-15T00:36:08;47.58;;;13.95;;
34481;SDS011;20720;48.886;9.388;2024-01-15T00:38:33;45.70;;;14.93;;
34481;SDS011;20720;48.886;9.388;2024-01-15T00:40:58;41.53;;;13.68;;
34481;SDS011;20720;48.886;9.388;2024-01-15T00:43:23;49.42;;;15.75;;
34481;SDS011;20720;48.886;9.388;2024-01-15T00:45:49;46.95;;;15.27;;
34481;SDS011;20720;48.886;9.388;2024-01-15T00:48:14;52.70;;;15.75;;
34481;SDS011;20720;48.886;9.388;2024-01-15T00:50:39;45.90;;;15.38;;
34481;SDS011;20720;48.886;9.388;2024-01-15T00:53:05;43.92;;;15.18;;
34481;SDS011;20720;48.886;9.388;2024-01-15T00:55:30;45.55;;;14.52;;
34481;SDS011;20720;48.886;9.388;2024-01-15T00:57:55;50.03;;;15.50;;
34481;SDS011;20720;48.886;9.388;2024-01-15T01:00:20;45.63;;;15.50;;
34481;SDS011;20720;48.886;9.388;2024-01-15T01:02:49;46.60;;;15.48;;
34481;SDS011;20720;48.886;9.388;2024-01-15T01:05:15;44.67;;;14.48;;
34481;SDS011;20720;48.886;9.388;2024-01-15T01:07:40;46.05;;;15.63;;
34481;SDS011;20720;48.886;9.388;2024-01-15T01:10:05;48.72;;;16.13;;
34481;SDS011;20720;48.886;9.388;2024-01-15T01:12:31;45.05;;;15.15;;
34481;SDS011;20720;48.886;9.388;2024-01-15T01:14:57;47.25;;;14.93;;
34481;SDS011;20720;48.886;9.388;2024-01-15T01:17:22;44.03;;;14.48;;
34481;SDS011;20720;48.886;9.388;2024-01-15T01:19:47;46.45;;;14.30;;
34481;SDS011;20720;48.886;9.388;2024-01-15T01:22:14;39.53;;;13.55;;
34481;SDS011;20720;48.886;9.388;2024-01-15T01:24:39;45.40;;;14.25;;
34481;SDS011;20720;48.886;9.388;2024-01-15T01:27:05;40.05;;;12.88;;
34481;SDS011;20720;48.886;9.388;2024-01-15T01:29:30;40.65;;;13.35;;
34481;SDS011;20720;48.886;9.388;2024-01-15T01:31:55;42.60;;;13.55;;
34481;SDS011;20720;48.886;9.388;2024-01-15T01:34:21;38.25;;;13.57;;
34481;SDS011;20720;48.886;9.388;2024-01-15T01:36:47;45.55;;;14.35;;
34481;SDS011;20720;48.886;9.388;2024-01-15T01:39:12;47.05;;;14.48;;
34481;SDS011;20720;48.886;9.388;2024-01-15T01:41:38;40.78;;;13.05;;
34481;SDS011;20720;48.886;9.388;2024-01-15T01:44:03;52.70;;;16.75;;
34481;SDS011;20720;48.886;9.388;2024-01-15T01:46:29;40.88;;;13.93;;
34481;SDS011;20720;48.886;9.388;2024-01-15T01:48:54;44.22;;;15.02;;
34481;SDS011;20720;48.886;9.388;2024-01-15T01:51:21;48.60;;;14.52;;
34481;SDS011;20720;48.886;9.388;2024-01-15T01:53:49;44.55;;;14.63;;
34481;SDS011;20720;48.886;9.388;2024-01-15T01:56:15;39.05;;;13.40;;
34481;SDS011;20720;48.886;9.388;2024-01-15T01:58:43;37.25;;;12.48;;
34481;SDS011;20720;48.886;9.388;2024-01-15T02:01:10;38.00;;;12.73;;
34481;SDS011;20720;48.886;9.388;2024-01-15T02:03:38;37.65;;;12.85;;
34481;SDS011;20720;48.886;9.388;2024-01-15T02:06:04;37.85;;;13.45;;
34481;SDS011;20720;48.886;9.388;2024-01-15T02:08:30;34.85;;;11.80;;
34481;SDS011;20720;48.886;9.388;2024-01-15T02:10:56;32.63;;;10.70;;
34481;SDS011;20720;48.886;9.388;2024-01-15T02:13:21;28.88;;;9.65;;
34481;SDS011;20720;48.886;9.388;2024-01-15T02:15:47;27.25;;;9.88;;
34481;SDS011;20720;48.886;9.388;2024-01-15T02:18:12;27.52;;;10.60;;
34481;SDS011;20720;48.886;9.388;2024-01-15T02:20:37;26.10;;;9.60;;
34481;SDS011;20720;48.886;9.388;2024-01-15T02:25:38;21.65;;;7.50;;
34481;SDS011;20720;48.886;9.388;2024-01-15T02:28:06;23.30;;;8.95;;
34481;SDS011;20720;48.886;9.388;2024-01-15T02:30:34;25.10;;;8.63;;
34481;SDS011;20720;48.886;9.388;2024-01-15T02:33:02;23.80;;;8.48;;
34481;SDS011;20720;48.886;9.388;2024-01-15T02:35:27;21.15;;;7.90;;
34481;SDS011;20720;48.886;9.388;2024-01-15T02:37:52;23.88;;;8.18;;
34481;SDS011;20720;48.886;9.388;2024-01-15T02:40:17;21.33;;;8.10;;
34481;SDS011;20720;48.886;9.388;2024-01-15T02:42:43;23.58;;;7.97;;
34481;SDS011;20720;48.886;9.388;2024-01-15T02:45:08;20.90;;;8.07;;
34481;SDS011;20720;48.886;9.388;2024-01-15T02:47:34;20.65;;;7.28;;
34481;SDS011;20720;48.886;9.388;2024-01-15T02:49:59;24.05;;;8.13;;
34481;SDS011;20720;48.886;9.388;2024-01-15T02:52:24;22.88;;;8.07;;
34481;SDS011;20720;48.886;9.388;2024-01-15T02:54:49;26.58;;;8.88;;
34481;SDS011;20720;48.886;9.388;2024-01-15T02:57:15;22.08;;;7.75;;
34481;SDS011;20720;48.886;9.388;2024-01-15T02:59:40;21.25;;;8.18;;
34481;SDS011;20720;48.886;9.388;2024-01-15T03:02:05;21.52;;;8.32;;
34481;SDS011;20720;48.886;9.388;2024-01-15T03:04:30;23.02;;;8.18;;
34481;SDS011;20720;48.886;9.388;2024-01-15T03:06:56;25.52;;;9.32;;
34481;SDS011;20720;48.886;9.388;2024-01-15T03:09:21;21.83;;;8.13;;
34481;SDS011;20720;48.886;9.388;2024-01-15T03:11:46;22.23;;;7.82;;
34481;SDS011;20720;48.886;9.388;2024-01-15T03:14:12;25.42;;;8.05;;
34481;SDS011;20720;48.886;9.388;2024-01-15T03:16:37;20.42;;;8.15;;
34481;SDS011;20720;48.886;9.388;2024-01-15T03:19:02;21.08;;;7.57;;
34481;SDS011;20720;48.886;9.388;2024-01-15T03:21:28;21.77;;;7.60;;
34481;SDS011;20720;48.886;9.388;2024-01-15T03:23:53;22.98;;;8.73;;
34481;SDS011;20720;48.886;9.388;2024-01-15T03:26:22;22.25;;;7.82;;
34481;SDS011;20720;48.886;9.388;2024-01-15T03:28:47;19.08;;;7.32;;
34481;SDS011;20720;48.886;9.388;2024-01-15T03:31:12;21.15;;;7.60;;
34481;SDS011;20720;48.886;9.388;2024-01-15T03:33:37;23.05;;;7.53;;
34481;SDS011;20720;48.886;9.388;2024-01-15T03:36:03;19.70;;;7.03;;
34481;SDS011;20720;48.886;9.388;2024-01-15T03:38:28;22.13;;;8.35;;
34481;SDS011;20720;48.886;9.388;2024-01-15T03:40:53;16.52;;;6.28;;
34481;SDS011;20720;48.886;9.388;2024-01-15T03:43:19;22.90;;;8.20;;
34481;SDS011;20720;48.886;9.388;2024-01-15T03:45:44;20.98;;;7.40;;
34481;SDS011;20720;48.886;9.388;2024-01-15T03:48:10;20.92;;;7.65;;
34481;SDS011;20720;48.886;9.388;2024-01-15T03:50:36;19.05;;;7.07;;
34481;SDS011;20720;48.886;9.388;2024-01-15T03:53:02;19.58;;;7.15;;
34481;SDS011;20720;48.886;9.388;2024-01-15T03:55:27;19.20;;;6.97;;
34481;SDS011;20720;48.886;9.388;2024-01-15T03:57:53;17.33;;;6.85;;
34481;SDS011;20720;48.886;9.388;2024-01-15T04:00:22;20.10;;;7.38;;
34481;SDS011;20720;48.886;9.388;2024-01-15T04:02:47;21.10;;;7.18;;
34481;SDS011;20720;48.886;9.388;2024-01-15T04:05:12;18.17;;;6.45;;
34481;SDS011;20720;48.886;9.388;2024-01-15T04:07:37;18.73;;;7.05;;
34481;SDS011;20720;48.886;9.388;2024-01-15T04:10:03;18.30;;;6.40;;
34481;SDS011;20720;48.886;9.388;2024-01-15T04:12:28;20.83;;;7.03;;
34481;SDS011;20720;48.886;9.388;2024-01-15T04:14:53;19.20;;;6.45;;
34481;SDS011;20720;48.886;9.388;2024-01-15T04:17:19;21.33;;;6.88;;
34481;SDS011;20720;48.886;9.388;2024-01-15T04:19:44;18.48;;;7.20;;
34481;SDS011;20720;48.886;9.388;2024-01-15T04:22:10;22.17;;;6.85;;
34481;SDS011;20720;48.886;9.388;2024-01-15T04:24:35;19.30;;;6.78;;
34481;SDS011;20720;48.886;9.388;2024-01-15T04:27:00;19.15;;;6.82;;
34481;SDS011;20720;48.886;9.388;2024-01-15T04:29:25;21.13;;;6.93;;
34481;SDS011;20720;48.886;9.388;2024-01-15T04:31:51;19.33;;;6.53;;
34481;SDS011;20720;48.886;9.388;2024-01-15T04:34:17;16.00;;;6.03;;
34481;SDS011;20720;48.886;9.388;2024-01-15T04:36:42;21.15;;;7.07;;
34481;SDS011;20720;48.886;9.388;2024-01-15T04:39:08;19.88;;;6.88;;
34481;SDS011;20720;48.886;9.388;2024-01-15T04:41:33;23.90;;;7.82;;
34481;SDS011;20720;48.886;9.388;2024-01-15T04:43:58;19.45;;;7.72;;
34481;SDS011;20720;48.886;9.388;2024-01-15T04:46:26;22.10;;;6.60;;
34481;SDS011;20720;48.886;9.388;2024-01-15T04:48:51;19.15;;;7.18;;
34481;SDS011;20720;48.886;9.388;2024-01-15T04:51:16;25.38;;;8.38;;
34481;SDS011;20720;48.886;9.388;2024-01-15T04:53:42;19.85;;;7.13;;
34481;SDS011;20720;48.886;9.388;2024-01-15T04:56:07;18.02;;;6.72;;
34481;SDS011;20720;48.886;9.388;2024-01-15T04:58:32;21.83;;;7.00;;
34481;SDS011;20720;48.886;9.388;2024-01-15T05:00:57;15.07;;;5.82;;
34481;SDS011;20720;48.886;9.388;2024-01-15T05:03:23;20.27;;;7.40;;
34481;SDS011;20720;48.886;9.388;2024-01-15T05:05:48;17.60;;;6.60;;
34481;SDS011;20720;48.886;9.388;2024-01-15T05:08:13;20.42;;;6.85;;
34481;SDS011;20720;48.886;9.388;2024-01-15T05:10:38;17.48;;;6.50;;
34481;SDS011;20720;48.886;9.388;2024-01-15T05:13:03;14.13;;;5.50;;
34481;SDS011;20720;48.886;9.388;2024-01-15T05:15:29;17.77;;;6.60;;
34481;SDS011;20720;48.886;9.388;2024-01-15T05:17:54;17.52;;;6.53;;
34481;SDS011;20720;48.886;9.388;2024-01-15T05:20:20;25.15;;;8.23;;
34481;SDS011;20720;48.886;9.388;2024-01-15T05:22:45;21.70;;;7.78;;
34481;SDS011;20720;48.886;9.388;2024-01-15T05:25:10;24.08;;;7.45;;
34481;SDS011;20720;48.886;9.388;2024-01-15T05:27:36;20.75;;;8.10;;
34481;SDS011;20720;48.886;9.388;2024-01-15T05:30:01;16.02;;;5.22;;
34481;SDS011;20720;48.886;9.388;2024-01-15T05:32:26;16.92;;;6.85;;
34481;SDS011;20720;48.886;9.388;2024-01-15T05:34:51;13.98;;;5.90;;
34481;SDS011;20720;48.886;9.388;2024-01-15T05:37:17;22.38;;;9.27;;
34481;SDS011;20720;48.886;9.388;2024-01-15T05:39:42;20.60;;;8.65;;
34481;SDS011;20720;48.886;9.388;2024-01-15T05:42:07;21.85;;;8.18;;
34481;SDS011;20720;48.886;9.388;2024-01-15T05:44:32;16.10;;;6.35;;
34481;SDS011;20720;48.886;9.388;2024-01-15T05:46:58;17.05;;;6.65;;
34481;SDS011;20720;48.886;9.388;2024-01-15T05:49:23;17.50;;;6.72;;
34481;SDS011;20720;48.886;9.388;2024-01-15T05:51:48;18.30;;;6.35;;
34481;SDS011;20720;48.886;9.388;2024-01-15T05:54:14;17.45;;;6.50;;
34481;SDS011;20720;48.886;9.388;2024-01-15T05:56:39;17.25;;;6.60;;
34481;SDS011;20720;48.886;9.388;2024-01-15T05:59:04;18.85;;;6.45;;
34481;SDS011;20720;48.886;9.388;2024-01-15T06:01:30;19.88;;;6.93;;
34481;SDS011;20720;48.886;9.388;2024-01-15T06:03:55;17.55;;;6.57;;
34481;SDS011;20720;48.886;9.388;2024-01-15T06:06:21;20.20;;;7.28;;
34481;SDS011;20720;48.886;9.388;2024-01-15T06:08:47;16.48;;;6.68;;
34481;SDS011;20720;48.886;9.388;2024-01-15T06:11:12;16.88;;;6.50;;
34481;SDS011;20720;48.886;9.388;2024-01-15T06:13:38;16.60;;;6.65;;
34481;SDS011;20720;48.886;9.388;2024-01-15T06:16:11;14.88;;;5.68;;
34481;SDS011;20720;48.886;9.388;2024-01-15T06:18:38;18.40;;;6.35;;
34481;SDS011;20720;48.886;9.388;2024-01-15T06:21:03;15.68;;;6.15;;
34481;SDS011;20720;48.886;9.388;2024-01-15T06:23:29;16.92;;;6.18;;
34481;SDS011;20720;48.886;9.388;2024-01-15T06:25:54;14.43;;;5.93;;
34481;SDS011;20720;48.886;9.388;2024-01-15T06:28:19;13.68;;;5.47;;
34481;SDS011;20720;48.886;9.388;2024-01-15T06:30:45;15.60;;;5.97;;
34481;SDS011;20720;48.886;9.388;2024-01-15T06:33:10;15.05;;;5.65;;
34481;SDS011;20720;48.886;9.388;2024-01-15T06:35:35;17.42;;;6.30;;
34481;SDS011;20720;48.886;9.388;2024-01-15T06:38:00;13.63;;;5.45;;
34481;SDS011;20720;48.886;9.388;2024-01-15T06:40:26;13.07;;;5.20;;
34481;SDS011;20720;48.886;9.388;2024-01-15T06:42:51;13.43;;;5.13;;
34481;SDS011;20720;48.886;9.388;2024-01-15T06:45:16;12.93;;;5.18;;
34481;SDS011;20720;48.886;9.388;2024-01-15T06:47:41;16.70;;;6.25;;
34481;SDS011;20720;48.886;9.388;2024-01-15T06:50:07;17.02;;;7.25;;
34481;SDS011;20720;48.886;9.388;2024-01-15T06:52:32;13.68;;;5.95;;
34481;SDS011;20720;48.886;9.388;2024-01-15T06:54:58;12.90;;;5.35;;
34481;SDS011;20720;48.886;9.388;2024-01-15T06:57:23;13.52;;;5.82;;
34481;SDS011;20720;48.886;9.388;2024-01-15T06:59:48;13.98;;;5.65;;
34481;SDS011;20720;48.886;9.388;2024-01-15T07:02:13;18.90;;;6.75;;
34481;SDS011;20720;48.886;9.388;2024-01-15T07:04:39;14.43;;;5.82;;
34481;SDS011;20720;48.886;9.388;2024-01-15T07:07:04;14.38;;;6.13;;
34481;SDS011;20720;48.886;9.388;2024-01-15T07:09:29;17.17;;;6.30;;
34481;SDS011;20720;48.886;9.388;2024-01-15T07:11:55;16.58;;;5.60;;
34481;SDS011;20720;48.886;9.388;2024-01-15T07:14:22;15.25;;;6.18;;
34481;SDS011;20720;48.886;9.388;2024-01-15T07:16:47;14.98;;;6.00;;
34481;SDS011;20720;48.886;9.388;2024-01-15T07:19:13;14.85;;;5.65;;
34481;SDS011;20720;48.886;9.388;2024-01-15T07:21:38;17.92;;;6.88;;
34481;SDS011;20720;48.886;9.388;2024-01-15T07:24:05;15.43;;;5.55;;
34481;SDS011;20720;48.886;9.388;2024-01-15T07:26:30;17.38;;;6.00;;
34481;SDS011;20720;48.886;9.388;2024-01-15T07:28:56;16.42;;;5.93;;
34481;SDS011;20720;48.886;9.388;2024-01-15T07:31:21;16.02;;;6.97;;
34481;SDS011;20720;48.886;9.388;2024-01-15T07:33:47;13.93;;;5.75;;
34481;SDS011;20720;48.886;9.388;2024-01-15T07:36:12;17.45;;;5.95;;
34481;SDS011;20720;48.886;9.388;2024-01-15T07:38:37;16.95;;;7.15;;
34481;SDS011;20720;48.886;9.388;2024-01-15T07:41:02;18.27;;;7.93;;
34481;SDS011;20720;48.886;9.388;2024-01-15T07:43:28;15.55;;;6.32;;
34481;SDS011;20720;48.886;9.388;2024-01-15T07:45:54;13.35;;;5.80;;
34481;SDS011;20720;48.886;9.388;2024-01-15T07:48:19;14.52;;;5.78;;
34481;SDS011;20720;48.886;9.388;2024-01-15T07:50:45;15.38;;;5.88;;
34481;SDS011;20720;48.886;9.388;2024-01-15T07:53:10;12.43;;;5.20;;
34481;SDS011;20720;48.886;9.388;2024-01-15T07:55:35;15.55;;;6.25;;
34481;SDS011;20720;48.886;9.388;2024-01-15T07:58:01;14.80;;;5.53;;
34481;SDS011;20720;48.886;9.388;2024-01-15T08:00:27;13.43;;;5.47;;
34481;SDS011;20720;48.886;9.388;2024-01-15T08:02:52;14.30;;;6.32;;
34481;SDS011;20720;48.886;9.388;2024-01-15T08:05:18;12.38;;;5.65;;
34481;SDS011;20720;48.886;9.388;2024-01-15T08:07:43;12.93;;;5.47;;
34481;SDS011;20720;48.886;9.388;2024-01-15T08:10:09;11.77;;;4.68;;
34481;SDS011;20720;48.886;9.388;2024-01-15T08:12:34;11.48;;;4.93;;
34481;SDS011;20720;48.886;9.388;2024-01-15T08:14:59;11.90;;;4.82;;
34481;SDS011;20720;48.886;9.388;2024-01-15T08:17:24;10.52;;;4.25;;
34481;SDS011;20720;48.886;9.388;2024-01-15T08:19:53;13.93;;;5.70;;
34481;SDS011;20720;48.886;9.388;2024-01-15T08:22:19;14.40;;;5.22;;
34481;SDS011;20720;48.886;9.388;2024-01-15T08:24:44;12.38;;;5.82;;
34481;SDS011;20720;48.886;9.388;2024-01-15T08:27:10;12.20;;;5.15;;
34481;SDS011;20720;48.886;9.388;2024-01-15T08:29:36;12.45;;;5.20;;
34481;SDS011;20720;48.886;9.388;2024-01-15T08:32:01;11.10;;;4.85;;
34481;SDS011;20720;48.886;9.388;2024-01-15T08:34:26;14.45;;;5.05;;
34481;SDS011;20720;48.886;9.388;2024-01-15T08:36:51;12.32;;;5.35;;
34481;SDS011;20720;48.886;9.388;2024-01-15T08:39:16;10.48;;;4.85;;
34481;SDS011;20720;48.886;9.388;2024-01-15T08:41:44;14.18;;;4.85;;
34481;SDS011;20720;48.886;9.388;2024-01-15T08:44:09;16.85;;;6.85;;
34481;SDS011;20720;48.886;9.388;2024-01-15T08:46:34;17.00;;;6.50;;
34481;SDS011;20720;48.886;9.388;2024-01-15T08:48:59;18.33;;;6.35;;
34481;SDS011;20720;48.886;9.388;2024-01-15T08:51:25;17.80;;;7.00;;
34481;SDS011;20720;48.886;9.388;2024-01-15T08:53:50;15.20;;;5.95;;
34481;SDS011;20720;48.886;9.388;2024-01-15T08:56:15;14.98;;;6.53;;
34481;SDS011;20720;48.886;9.388;2024-01-15T08:58:41;16.52;;;6.20;;
34481;SDS011;20720;48.886;9.388;2024-01-15T09:01:06;17.92;;;6.70;;
34481;SDS011;20720;48.886;9.388;2024-01-15T09:03:31;19.15;;;6.53;;
34481;SDS011;20720;48.886;9.388;2024-01-15T09:05:58;11.85;;;5.32;;
34481;SDS011;20720;48.886;9.388;2024-01-15T09:08:24;13.13;;;6.20;;
34481;SDS011;20720;48.886;9.388;2024-01-15T09:10:49;16.42;;;7.13;;
34481;SDS011;20720;48.886;9.388;2024-01-15T09:13:15;17.10;;;7.32;;
34481;SDS011;20720;48.886;9.388;2024-01-15T09:15:40;14.00;;;6.28;;
34481;SDS011;20720;48.886;9.388;2024-01-15T09:18:05;17.85;;;7.55;;
34481;SDS011;20720;48.886;9.388;2024-01-15T09:20:31;15.20;;;6.15;;
34481;SDS011;20720;48.886;9.388;2024-01-15T09:22:56;19.30;;;7.80;;
34481;SDS011;20720;48.886;9.388;2024-01-15T09:25:21;16.90;;;6.20;;
34481;SDS011;20720;48.886;9.388;2024-01-15T09:27:46;20.25;;;6.72;;
34481;SDS011;20720;48.886;9.388;2024-01-15T09:30:12;14.85;;;6.03;;
34481;SDS011;20720;48.886;9.388;2024-01-15T09:32:37;13.02;;;5.35;;
34481;SDS011;20720;48.886;9.388;2024-01-15T09:35:02;10.48;;;5.25;;
34481;SDS011;20720;48.886;9.388;2024-01-15T09:37:28;14.43;;;5.15;;
34481;SDS011;20720;48.886;9.388;2024-01-15T09:39:54;11.95;;;5.30;;
34481;SDS011;20720;48.886;9.388;2024-01-15T09:42:20;10.63;;;4.78;;
34481;SDS011;20720;48.886;9.388;2024-01-15T09:44:48;9.52;;;4.05;;
34481;SDS011;20720;48.886;9.388;2024-01-15T09:47:13;11.75;;;4.97;;
34481;SDS011;20720;48.886;9.388;2024-01-15T09:49:41;9.20;;;4.40;;
34481;SDS011;20720;48.886;9.388;2024-01-15T09:52:06;8.52;;;4.03;;
34481;SDS011;20720;48.886;9.388;2024-01-15T09:54:33;8.05;;;4.25;;
34481;SDS011;20720;48.886;9.388;2024-01-15T09:56:59;11.00;;;4.63;;
34481;SDS011;20720;48.886;9.388;2024-01-15T09:59:25;9.65;;;4.30;;
34481;SDS011;20720;48.886;9.388;2024-01-15T10:01:52;8.68;;;4.07;;
34481;SDS011;20720;48.886;9.388;2024-01-15T10:04:18;11.63;;;4.88;;
34481;SDS011;20720;48.886;9.388;2024-01-15T10:06:46;10.48;;;4.40;;
34481;SDS011;20720;48.886;9.388;2024-01-15T10:09:15;9.93;;;4.40;;
34481;SDS011;20720;48.886;9.388;2024-01-15T10:11:44;10.43;;;5.15;;
34481;SDS011;20720;48.886;9.388;2024-01-15T10:14:12;9.98;;;4.10;;
34481;SDS011;20720;48.886;9.388;2024-01-15T10:16:38;8.80;;;4.00;;
34481;SDS011;20720;48.886;9.388;2024-01-15T10:19:04;9.32;;;4.22;;
34481;SDS011;20720;48.886;9.388;2024-01-15T10:21:31;8.95;;;3.72;;
34481;SDS011;20720;48.886;9.388;2024-01-15T10:23:59;9.55;;;4.45;;
34481;SDS011;20720;48.886;9.388;2024-01-15T10:26:25;10.27;;;4.00;;
34481;SDS011;20720;48.886;9.388;2024-01-15T10:28:51;12.15;;;4.20;;
34481;SDS011;20720;48.886;9.388;2024-01-15T10:31:17;10.20;;;4.10;;
34481;SDS011;20720;48.886;9.388;2024-01-15T10:33:44;7.07;;;3.47;;
34481;SDS011;20720;48.886;9.388;2024-01-15T10:36:09;11.07;;;3.80;;
34481;SDS011;20720;48.886;9.388;2024-01-15T10:38:36;11.32;;;4.30;;
34481;SDS011;20720;48.886;9.388;2024-01-15T10:41:01;7.97;;;4.15;;
34481;SDS011;20720;48.886;9.388;2024-01-15T10:43:26;9.45;;;3.95;;
34481;SDS011;20720;48.886;9.388;2024-01-15T10:45:52;13.95;;;5.10;;
34481;SDS011;20720;48.886;9.388;2024-01-15T10:48:17;11.90;;;4.22;;
34481;SDS011;20720;48.886;9.388;2024-01-15T10:50:44;12.52;;;4.85;;
34481;SDS011;20720;48.886;9.388;2024-01-15T10:53:11;12.77;;;3.80;;
34481;SDS011;20720;48.886;9.388;2024-01-15T10:55:39;8.95;;;4.05;;
34481;SDS011;20720;48.886;9.388;2024-01-15T10:58:06;13.25;;;5.30;;
34481;SDS011;20720;48.886;9.388;2024-01-15T11:00:32;10.13;;;4.60;;
34481;SDS011;20720;48.886;9.388;2024-01-15T11:02:59;9.80;;;4.05;;
34481;SDS011;20720;48.886;9.388;2024-01-15T11:05:27;7.88;;;3.53;;
34481;SDS011;20720;48.886;9.388;2024-01-15T11:07:56;7.93;;;3.75;;
34481;SDS011;20720;48.886;9.388;2024-01-15T11:10:46;9.60;;;3.90;;
34481;SDS011;20720;48.886;9.388;2024-01-15T11:16:06;8.07;;;3.10;;
34481;SDS011;20720;48.886;9.388;2024-01-15T11:18:37;7.07;;;3.08;;
34481;SDS011;20720;48.886;9.388;2024-01-15T11:23:44;7.32;;;3.67;;
34481;SDS011;20720;48.886;9.388;2024-01-15T11:29:01;7.60;;;3.80;;
34481;SDS011;20720;48.886;9.388;2024-01-15T11:34:06;8.40;;;3.80;;
34481;SDS011;20720;48.886;9.388;2024-01-15T11:42:02;7.82;;;3.80;;
34481;SDS011;20720;48.886;9.388;2024-01-15T11:44:28;8.80;;;3.58;;
34481;SDS011;20720;48.886;9.388;2024-01-15T11:47:01;8.32;;;3.50;;
34481;SDS011;20720;48.886;9.388;2024-01-15T11:52:16;7.10;;;3.20;;
34481;SDS011;20720;48.886;9.388;2024-01-15T11:54:44;9.65;;;3.65;;
34481;SDS011;20720;48.886;9.388;2024-01-15T11:57:18;6.13;;;3.00;;
34481;SDS011;20720;48.886;9.388;2024-01-15T11:59:50;7.15;;;3.53;;
34481;SDS011;20720;48.886;9.388;2024-01-15T12:02:15;7.80;;;3.70;;
34481;SDS011;20720;48.886;9.388;2024-01-15T12:04:40;9.75;;;3.67;;
34481;SDS011;20720;48.886;9.388;2024-01-15T12:07:06;12.35;;;4.25;;
34481;SDS011;20720;48.886;9.388;2024-01-15T12:09:31;9.07;;;3.63;;
34481;SDS011;20720;48.886;9.388;2024-01-15T12:11:59;9.32;;;3.83;;
34481;SDS011;20720;48.886;9.388;2024-01-15T12:14:31;10.93;;;4.20;;
34481;SDS011;20720;48.886;9.388;2024-01-15T12:16:57;17.02;;;6.40;;
34481;SDS011;20720;48.886;9.388;2024-01-15T12:19:22;11.70;;;4.85;;
34481;SDS011;20720;48.886;9.388;2024-01-15T12:21:50;8.30;;;4.00;;
34481;SDS011;20720;48.886;9.388;2024-01-15T12:24:16;11.60;;;4.35;;
34481;SDS011;20720;48.886;9.388;2024-01-15T12:26:42;30.83;;;8.77;;
34481;SDS011;20720;48.886;9.388;2024-01-15T12:29:07;15.63;;;5.65;;
34481;SDS011;20720;48.886;9.388;2024-01-15T12:31:32;11.90;;;4.63;;
34481;SDS011;20720;48.886;9.388;2024-01-15T12:33:58;12.60;;;5.80;;
34481;SDS011;20720;48.886;9.388;2024-01-15T12:36:23;13.45;;;5.78;;
34481;SDS011;20720;48.886;9.388;2024-01-15T12:38:48;11.90;;;5.32;;
34481;SDS011;20720;48.886;9.388;2024-01-15T12:41:14;14.10;;;5.57;;
34481;SDS011;20720;48.886;9.388;2024-01-15T12:43:40;14.02;;;6.15;;
34481;SDS011;20720;48.886;9.388;2024-01-15T12:46:05;11.90;;;4.70;;
34481;SDS011;20720;48.886;9.388;2024-01-15T12:48:31;9.10;;;4.18;;
34481;SDS011;20720;48.886;9.388;2024-01-15T12:50:56;9.77;;;4.00;;
34481;SDS011;20720;48.886;9.388;2024-01-15T12:53:21;8.40;;;3.88;;
34481;SDS011;20720;48.886;9.388;2024-01-15T12:55:46;9.68;;;4.68;;
34481;SDS011;20720;48.886;9.388;2024-01-15T12:58:12;8.27;;;3.95;;
34481;SDS011;20720;48.886;9.388;2024-01-15T13:00:37;7.00;;;3.42;;
34481;SDS011;20720;48.886;9.388;2024-01-15T13:03:03;9.10;;;3.78;;
34481;SDS011;20720;48.886;9.388;2024-01-15T13:05:28;8.18;;;3.58;;
34481;SDS011;20720;48.886;9.388;2024-01-15T13:07:56;6.82;;;3.03;;
34481;SDS011;20720;48.886;9.388;2024-01-15T13:10:21;6.85;;;3.75;;
34481;SDS011;20720;48.886;9.388;2024-01-15T13:12:46;8.70;;;3.53;;
34481;SDS011;20720;48.886;9.388;2024-01-15T13:15:11;9.25;;;4.05;;
34481;SDS011;20720;48.886;9.388;2024-01-15T13:17:37;8.25;;;3.45;;
34481;SDS011;20720;48.886;9.388;2024-01-15T13:20:04;7.85;;;3.33;;
34481;SDS011;20720;48.886;9.388;2024-01-15T13:22:31;10.00;;;4.03;;
34481;SDS011;20720;48.886;9.388;2024-01-15T13:24:57;7.78;;;3.20;;
34481;SDS011;20720;48.886;9.388;2024-01-15T13:27:22;8.65;;;3.78;;
34481;SDS011;20720;48.886;9.388;2024-01-15T13:29:48;7.72;;;3.35;;
34481;SDS011;20720;48.886;9.388;2024-01-15T13:32:13;7.82;;;3.70;;
34481;SDS011;20720;48.886;9.388;2024-01-15T13:34:47;8.52;;;3.60;;
34481;SDS011;20720;48.886;9.388;2024-01-15T13:37:12;10.00;;;3.65;;
34481;SDS011;20720;48.886;9.388;2024-01-15T13:39:38;10.10;;;4.28;;
34481;SDS011;20720;48.886;9.388;2024-01-15T13:42:03;8.68;;;3.60;;
34481;SDS011;20720;48.886;9.388;2024-01-15T13:44:28;11.48;;;4.63;;
34481;SDS011;20720;48.886;9.388;2024-01-15T13:46:54;11.60;;;4.43;;
34481;SDS011;20720;48.886;9.388;2024-01-15T13:49:19;7.95;;;3.75;;
34481;SDS011;20720;48.886;9.388;2024-01-15T13:51:44;7.80;;;3.42;;
34481;SDS011;20720;48.886;9.388;2024-01-15T13:54:09;6.45;;;3.08;;
34481;SDS011;20720;48.886;9.388;2024-01-15T13:56:35;10.20;;;3.58;;
34481;SDS011;20720;48.886;9.388;2024-01-15T13:59:00;7.63;;;3.22;;
34481;SDS011;20720;48.886;9.388;2024-01-15T14:01:25;5.55;;;2.70;;
34481;SDS011;20720;48.886;9.388;2024-01-15T14:03:52;6.63;;;2.92;;
34481;SDS011;20720;48.886;9.388;2024-01-15T14:06:17;8.07;;;3.47;;
34481;SDS011;20720;48.886;9.388;2024-01-15T14:08:43;7.03;;;3.25;;
34481;SDS011;20720;48.886;9.388;2024-01-15T14:11:08;8.43;;;3.63;;
34481;SDS011;20720;48.886;9.388;2024-01-15T14:13:35;6.05;;;3.10;;
34481;SDS011;20720;48.886;9.388;2024-01-15T14:16:00;8.65;;;3.78;;
34481;SDS011;20720;48.886;9.388;2024-01-15T14:18:26;7.88;;;4.32;;
34481;SDS011;20720;48.886;9.388;2024-01-15T14:20:52;8.45;;;4.40;;
34481;SDS011;20720;48.886;9.388;2024-01-15T14:23:18;7.97;;;4.00;;
34481;SDS011;20720;48.886;9.388;2024-01-15T14:25:44;7.47;;;3.70;;
34481;SDS011;20720;48.886;9.388;2024-01-15T14:28:09;9.25;;;4.32;;
34481;SDS011;20720;48.886;9.388;2024-01-15T14:30:35;11.18;;;4.50;;
34481;SDS011;20720;48.886;9.388;2024-01-15T14:33:01;12.18;;;4.57;;
34481;SDS011;20720;48.886;9.388;2024-01-15T14:35:26;10.18;;;4.45;;
34481;SDS011;20720;48.886;9.388;2024-01-15T14:37:51;7.28;;;3.65;;
34481;SDS011;20720;48.886;9.388;2024-01-15T14:40:16;7.93;;;4.13;;
34481;SDS011;20720;48.886;9.388;2024-01-15T14:42:42;8.65;;;4.35;;
34481;SDS011;20720;48.886;9.388;2024-01-15T14:45:07;7.97;;;3.88;;
34481;SDS011;20720;48.886;9.388;2024-01-15T14:47:39;8.85;;;4.60;;
34481;SDS011;20720;48.886;9.388;2024-01-15T14:50:08;8.18;;;4.65;;